Time;durP1;ratioP1;P1;durP2;ratioP2;P2;SDS_P1;SDS_P2;PMS_P1;PMS_P2;Temp;Humidity;BMP_temperature;BMP_pressure;BME280_temperature;BME280_humidity;BME280_pressure;Samples;Min_cycle;Max_cycle;Signal;HPM_P1;HPM_P2
2022/02/13 00:01:39;;;;;;;;;;;5.10;99.90;;;;;;5174284;27;44235;-80
2022/02/13 00:04:07;;;;;;;;;;;5.20;99.90;;;;;;5189453;27;43950;-80
2022/02/13 00:06:34;;;;;;;;;;;5.10;99.90;;;;;;5171326;27;44728;-81
2022/02/13 00:09:06;;;;;;;;;;;5.10;99.90;;;;;;5171242;27;42997;-81
2022/02/13 00:11:33;;;;;;;;;;;5.10;99.90;;;;;;5173119;27;45544;-80
2022/02/13 00:14:04;;;;;;;;;;;5.10;99.90;;;;;;5171342;27;42818;-80
2022/02/13 00:16:32;;;;;;;;;;;5.10;99.90;;;;;;5171361;27;42921;-80
2022/02/13 00:19:04;;;;;;;;;;;5.00;99.90;;;;;;5171458;27;43041;-81
2022/02/13 00:21:54;;;;;;;;;;;5.00;99.90;;;;;;5185815;27;45012;-80
2022/02/13 00:24:21;;;;;;;;;;;5.00;99.90;;;;;;5173652;27;20022;-80
2022/02/13 00:26:54;;;;;;;;;;;5.00;99.90;;;;;;5171667;27;44744;-81
2022/02/13 00:29:25;;;;;;;;;;;5.00;99.90;;;;;;5171443;27;42973;-81
2022/02/13 00:31:55;;;;;;;;;;;5.00;99.90;;;;;;5172490;27;42855;-80
2022/02/13 00:34:25;;;;;;;;;;;5.00;99.90;;;;;;5171930;27;44191;-80
2022/02/13 00:37:00;;;;;;;;;;;4.90;99.90;;;;;;5173371;27;44236;-80
2022/02/13 00:39:27;;;;;;;;;;;4.90;99.90;;;;;;5188693;27;42905;-80
2022/02/13 00:41:56;;;;;;;;;;;4.90;99.90;;;;;;5188132;27;44695;-80
2022/02/13 00:44:23;;;;;;;;;;;4.90;99.90;;;;;;5171257;27;43345;-81
2022/02/13 00:46:50;;;;;;;;;;;4.90;99.90;;;;;;5172768;27;43211;-80
2022/02/13 00:49:23;;;;;;;;;;;4.90;99.90;;;;;;5172528;27;43913;-80
2022/02/13 00:51:50;;;;;;;;;;;4.80;99.90;;;;;;5172570;27;43276;-80
2022/02/13 00:54:20;;;;;;;;;;;4.80;99.90;;;;;;5171266;27;42590;-80
2022/02/13 00:56:47;;;;;;;;;;;4.80;99.90;;;;;;5172401;27;43913;-81
2022/02/13 00:59:16;;;;;;;;;;;4.80;99.90;;;;;;5172328;27;44009;-80
2022/02/13 01:01:46;;;;;;;;;;;4.80;99.90;;;;;;5172744;27;44120;-80
2022/02/13 01:04:19;;;;;;;;;;;4.70;99.90;;;;;;5174273;27;45795;-80
2022/02/13 01:06:49;;;;;;;;;;;4.80;99.90;;;;;;5190135;27;45163;-80
2022/02/13 01:09:16;;;;;;;;;;;4.70;99.90;;;;;;5189970;27;43123;-80
2022/02/13 01:11:46;;;;;;;;;;;4.80;99.90;;;;;;5173927;27;44275;-81
2022/02/13 01:14:13;;;;;;;;;;;4.70;99.90;;;;;;5172529;27;45063;-80
2022/02/13 01:16:45;;;;;;;;;;;4.70;99.90;;;;;;5189690;27;43652;-80
2022/02/13 01:19:12;;;;;;;;;;;4.70;99.90;;;;;;5174048;27;44666;-80
2022/02/13 01:21:42;;;;;;;;;;;4.70;99.90;;;;;;5189728;27;43360;-80
2022/02/13 01:24:11;;;;;;;;;;;4.70;99.90;;;;;;5172640;27;43200;-80
2022/02/13 01:26:41;;;;;;;;;;;4.70;99.90;;;;;;5172920;27;43930;-80
2022/02/13 01:29:13;;;;;;;;;;;4.70;99.90;;;;;;5172201;27;43524;-80
2022/02/13 01:31:41;;;;;;;;;;;4.60;99.90;;;;;;5174177;27;44005;-80
2022/02/13 01:34:10;;;;;;;;;;;4.60;99.90;;;;;;5173726;27;42915;-80
2022/02/13 01:36:40;;;;;;;;;;;4.60;99.90;;;;;;5171975;27;45333;-80
2022/02/13 01:39:09;;;;;;;;;;;4.60;99.90;;;;;;5173252;27;44529;-80
2022/02/13 01:41:37;;;;;;;;;;;4.60;99.90;;;;;;5173141;27;45132;-80
2022/02/13 01:44:04;;;;;;;;;;;4.60;99.90;;;;;;5189233;27;44654;-80
2022/02/13 01:46:36;;;;;;;;;;;4.50;99.90;;;;;;5173565;27;43975;-80
2022/02/13 01:49:04;;;;;;;;;;;4.50;99.90;;;;;;5172594;27;44670;-80
2022/02/13 01:51:33;;;;;;;;;;;4.50;99.90;;;;;;5173207;27;43548;-80
2022/02/13 01:54:03;;;;;;;;;;;4.50;99.90;;;;;;5173234;27;44307;-80
2022/02/13 01:56:30;;;;;;;;;;;4.50;99.90;;;;;;5172573;27;43841;-80
2022/02/13 01:58:57;;;;;;;;;;;4.50;99.90;;;;;;5173433;27;43813;-80
2022/02/13 02:01:24;;;;;;;;;;;4.50;99.90;;;;;;5188863;27;43672;-80
2022/02/13 02:03:54;;;;;;;;;;;4.50;99.90;;;;;;5171995;27;43841;-80
2022/02/13 02:06:23;;;;;;;;;;;4.40;99.90;;;;;;5172982;27;42922;-80
2022/02/13 02:08:54;;;;;;;;;;;4.40;99.90;;;;;;5172492;27;42868;-80
2022/02/13 02:11:23;;;;;;;;;;;4.40;99.90;;;;;;5173300;27;45219;-80
2022/02/13 02:13:56;;;;;;;;;;;4.40;99.90;;;;;;5171957;27;43940;-80
2022/02/13 02:16:23;;;;;;;;;;;4.40;99.90;;;;;;5189196;27;42927;-80
2022/02/13 02:18:50;;;;;;;;;;;4.40;99.90;;;;;;5171788;27;46356;-81
2022/02/13 02:21:17;;;;;;;;;;;4.40;99.90;;;;;;5171641;27;43359;-80
2022/02/13 02:23:47;;;;;;;;;;;4.40;99.90;;;;;;5172271;27;43494;-80
2022/02/13 02:26:18;;;;;;;;;;;4.40;99.90;;;;;;5174026;27;19993;-80
2022/02/13 02:28:47;;;;;;;;;;;4.40;99.90;;;;;;5189011;27;43537;-80
2022/02/13 02:31:20;;;;;;;;;;;4.30;99.90;;;;;;5189408;27;46040;-80
2022/02/13 02:33:49;;;;;;;;;;;4.40;99.90;;;;;;5173729;27;43649;-80
2022/02/13 02:36:22;;;;;;;;;;;4.30;99.90;;;;;;5189200;27;45477;-80
2022/02/13 02:38:51;;;;;;;;;;;4.40;99.90;;;;;;5173114;27;44004;-80
2022/02/13 02:41:21;;;;;;;;;;;4.30;99.90;;;;;;5172849;27;42982;-80
2022/02/13 02:43:49;;;;;;;;;;;4.30;99.90;;;;;;5189510;27;45955;-80
2022/02/13 02:46:19;;;;;;;;;;;4.30;99.90;;;;;;5172947;27;43820;-80
2022/02/13 02:48:46;;;;;;;;;;;4.30;99.90;;;;;;5172880;27;43542;-80
2022/02/13 02:51:13;;;;;;;;;;;4.30;99.90;;;;;;5173058;27;44515;-80
2022/02/13 02:53:46;;;;;;;;;;;4.30;99.90;;;;;;5173757;27;44258;-80
2022/02/13 02:56:16;;;;;;;;;;;4.30;99.90;;;;;;5188927;27;43317;-80
2022/02/13 02:58:48;;;;;;;;;;;4.30;99.90;;;;;;5172568;27;44067;-80
2022/02/13 03:01:18;;;;;;;;;;;4.30;99.90;;;;;;5171477;27;42681;-80
2022/02/13 03:03:45;;;;;;;;;;;4.20;99.90;;;;;;5171404;27;43332;-81
2022/02/13 03:06:12;;;;;;;;;;;4.30;99.90;;;;;;5173032;27;43083;-80
2022/02/13 03:08:42;;;;;;;;;;;4.20;99.90;;;;;;5171505;27;44200;-80
2022/02/13 03:11:14;;;;;;;;;;;4.20;99.90;;;;;;5172708;27;45062;-80
2022/02/13 03:13:46;;;;;;;;;;;4.20;99.90;;;;;;5173295;27;45714;-80
2022/02/13 03:16:16;;;;;;;;;;;4.20;99.90;;;;;;5173280;27;45507;-80
2022/02/13 03:18:45;;;;;;;;;;;4.20;99.90;;;;;;5172427;27;43268;-80
2022/02/13 03:21:15;;;;;;;;;;;4.20;99.90;;;;;;5188609;27;44062;-80
2022/02/13 03:23:44;;;;;;;;;;;4.20;99.90;;;;;;5171509;27;44073;-80
2022/02/13 03:26:21;;;;;;;;;;;4.20;99.90;;;;;;5171348;27;43296;-80
2022/02/13 03:28:53;;;;;;;;;;;4.20;99.90;;;;;;5189533;27;43557;-80
2022/02/13 03:31:27;;;;;;;;;;;4.20;99.90;;;;;;5172219;27;43518;-80
2022/02/13 03:33:54;;;;;;;;;;;4.20;99.90;;;;;;5172932;27;42538;-80
2022/02/13 03:36:21;;;;;;;;;;;4.20;99.90;;;;;;5172772;27;41935;-80
2022/02/13 03:38:54;;;;;;;;;;;4.20;99.90;;;;;;5172791;27;43298;-80
2022/02/13 03:41:23;;;;;;;;;;;4.20;99.90;;;;;;5171273;27;43970;-80
2022/02/13 03:43:53;;;;;;;;;;;4.10;99.90;;;;;;5171658;27;43844;-80
2022/02/13 03:46:20;;;;;;;;;;;4.20;99.90;;;;;;5172705;27;43298;-80
2022/02/13 03:48:52;;;;;;;;;;;4.20;99.90;;;;;;5171393;27;43277;-80
2022/02/13 03:51:22;;;;;;;;;;;4.10;99.90;;;;;;5171738;27;44152;-80
2022/02/13 03:53:49;;;;;;;;;;;4.10;99.90;;;;;;5171467;27;44291;-80
2022/02/13 03:56:16;;;;;;;;;;;4.10;99.90;;;;;;5171483;27;43814;-80
2022/02/13 03:58:49;;;;;;;;;;;4.10;99.90;;;;;;5172634;27;43495;-78
2022/02/13 04:01:18;;;;;;;;;;;4.10;99.90;;;;;;5189525;27;43225;-80
2022/02/13 04:03:45;;;;;;;;;;;4.10;99.90;;;;;;5172885;27;44153;-80
2022/02/13 04:06:13;;;;;;;;;;;4.10;99.90;;;;;;5188565;27;43516;-80
2022/02/13 04:08:45;;;;;;;;;;;4.10;99.90;;;;;;5172087;27;44303;-80
2022/02/13 04:11:14;;;;;;;;;;;4.10;99.90;;;;;;5173399;27;43946;-81
2022/02/13 04:13:41;;;;;;;;;;;4.10;99.90;;;;;;5188541;27;45805;-81
2022/02/13 04:16:11;;;;;;;;;;;4.10;99.90;;;;;;5172591;27;43466;-80
2022/02/13 04:18:41;;;;;;;;;;;4.10;99.90;;;;;;5171466;27;43346;-80
2022/02/13 04:21:11;;;;;;;;;;;4.00;99.90;;;;;;5171089;27;44302;-80
2022/02/13 04:23:40;;;;;;;;;;;4.00;99.90;;;;;;5172775;27;44165;-80
2022/02/13 04:26:07;;;;;;;;;;;4.00;99.90;;;;;;5171143;27;42363;-80
2022/02/13 04:28:40;;;;;;;;;;;4.00;99.90;;;;;;5173236;27;43521;-80
2022/02/13 04:31:09;;;;;;;;;;;4.00;99.90;;;;;;5174209;27;45784;-80
2022/02/13 04:33:39;;;;;;;;;;;4.00;99.90;;;;;;5174355;27;45672;-80
2022/02/13 04:36:12;;;;;;;;;;;4.00;99.90;;;;;;5174137;27;43102;-80
2022/02/13 04:38:39;;;;;;;;;;;4.00;99.90;;;;;;5173243;27;43396;-80
2022/02/13 04:41:06;;;;;;;;;;;4.00;99.90;;;;;;5173946;27;42896;-80
2022/02/13 04:43:33;;;;;;;;;;;4.00;99.90;;;;;;5173609;27;46163;-80
2022/02/13 04:46:03;;;;;;;;;;;4.00;99.90;;;;;;5173632;27;45170;-80
2022/02/13 04:48:33;;;;;;;;;;;4.00;99.90;;;;;;5173551;27;45184;-80
2022/02/13 04:51:08;;;;;;;;;;;3.90;99.90;;;;;;5189826;27;43254;-80
2022/02/13 04:53:40;;;;;;;;;;;3.90;99.90;;;;;;5172939;27;44552;-80
2022/02/13 04:56:13;;;;;;;;;;;3.90;99.90;;;;;;5189894;27;44173;-80
2022/02/13 04:58:42;;;;;;;;;;;3.90;99.90;;;;;;5174238;27;44911;-80
2022/02/13 05:01:13;;;;;;;;;;;3.90;99.90;;;;;;5173986;27;43452;-80
2022/02/13 05:03:40;;;;;;;;;;;3.90;99.90;;;;;;5173821;27;44266;-80
2022/02/13 05:06:13;;;;;;;;;;;3.90;99.90;;;;;;5189707;27;42324;-80
2022/02/13 05:08:43;;;;;;;;;;;3.90;99.90;;;;;;5173673;27;43136;-80
2022/02/13 05:11:13;;;;;;;;;;;3.90;99.90;;;;;;5173686;27;42364;-80
2022/02/13 05:13:43;;;;;;;;;;;3.80;99.90;;;;;;5173943;27;43277;-80
2022/02/13 05:16:12;;;;;;;;;;;3.80;99.90;;;;;;5173521;27;43970;-80
2022/02/13 05:18:39;;;;;;;;;;;3.80;99.90;;;;;;5189480;27;42145;-80
2022/02/13 05:21:09;;;;;;;;;;;3.80;99.90;;;;;;5172554;27;43205;-80
2022/02/13 05:23:36;;;;;;;;;;;3.80;99.90;;;;;;5172950;27;43941;-80
2022/02/13 05:26:12;;;;;;;;;;;3.80;99.90;;;;;;5172072;27;43751;-80
2022/02/13 05:28:39;;;;;;;;;;;3.80;99.90;;;;;;5173963;27;44237;-80
2022/02/13 05:31:09;;;;;;;;;;;3.70;99.90;;;;;;5172417;27;43270;-80
2022/02/13 05:33:36;;;;;;;;;;;3.70;99.90;;;;;;5173384;27;43295;-80
2022/02/13 05:36:04;;;;;;;;;;;3.70;99.90;;;;;;5173537;27;43490;-80
2022/02/13 05:38:31;;;;;;;;;;;3.70;99.90;;;;;;5172627;27;43973;-80
2022/02/13 05:40:58;;;;;;;;;;;3.70;99.90;;;;;;5172991;27;42777;-80
2022/02/13 05:43:32;;;;;;;;;;;3.70;99.90;;;;;;5172066;27;42919;-80
2022/02/13 05:45:59;;;;;;;;;;;3.70;99.90;;;;;;5174471;27;43340;-80
2022/02/13 05:48:32;;;;;;;;;;;3.70;99.90;;;;;;5171842;27;44241;-80
2022/02/13 05:50:59;;;;;;;;;;;3.70;99.90;;;;;;5173387;27;42972;-80
2022/02/13 05:53:29;;;;;;;;;;;3.60;99.90;;;;;;5173583;27;43971;-80
2022/02/13 05:56:02;;;;;;;;;;;3.70;99.90;;;;;;5171779;27;45324;-80
2022/02/13 05:58:38;;;;;;;;;;;3.60;99.90;;;;;;5189918;27;43940;-80
2022/02/13 06:01:12;;;;;;;;;;;3.60;99.90;;;;;;5174128;27;19985;-81
2022/02/13 06:03:39;;;;;;;;;;;3.60;99.90;;;;;;5189384;27;43280;-80
2022/02/13 06:06:09;;;;;;;;;;;3.60;99.90;;;;;;5171861;27;43579;-80
2022/02/13 06:08:39;;;;;;;;;;;3.60;99.90;;;;;;5172442;27;44228;-80
2022/02/13 06:11:11;;;;;;;;;;;3.60;99.90;;;;;;5171624;27;45249;-80
2022/02/13 06:13:40;;;;;;;;;;;3.60;99.90;;;;;;5172657;27;44003;-80
2022/02/13 06:16:08;;;;;;;;;;;3.60;99.90;;;;;;5172157;27;43944;-80
2022/02/13 06:18:37;;;;;;;;;;;3.60;99.90;;;;;;5172571;27;44048;-80
2022/02/13 06:21:04;;;;;;;;;;;3.60;99.90;;;;;;5171523;27;44113;-81
2022/02/13 06:23:31;;;;;;;;;;;3.60;99.90;;;;;;5171836;27;44291;-80
2022/02/13 06:26:01;;;;;;;;;;;3.60;99.90;;;;;;5172340;27;44123;-81
2022/02/13 06:28:37;;;;;;;;;;;3.50;99.90;;;;;;5171859;27;43663;-80
2022/02/13 06:31:06;;;;;;;;;;;3.50;99.90;;;;;;5172734;27;32032;-80
2022/02/13 06:33:33;;;;;;;;;;;3.50;99.90;;;;;;5171673;27;42888;-80
2022/02/13 06:36:03;;;;;;;;;;;3.50;99.90;;;;;;5173500;27;43244;-80
2022/02/13 06:38:31;;;;;;;;;;;3.50;99.90;;;;;;5171672;27;43538;-80
2022/02/13 06:41:00;;;;;;;;;;;3.50;99.90;;;;;;5173039;27;43238;-80
2022/02/13 06:43:32;;;;;;;;;;;3.50;99.90;;;;;;5171791;27;42347;-80
2022/02/13 06:46:02;;;;;;;;;;;3.50;99.90;;;;;;5173223;27;44265;-80
2022/02/13 06:48:34;;;;;;;;;;;3.50;99.90;;;;;;5172867;27;42891;-80
2022/02/13 06:51:07;;;;;;;;;;;3.50;99.90;;;;;;5173346;27;43097;-80
2022/02/13 06:53:34;;;;;;;;;;;3.60;99.90;;;;;;5172441;27;43951;-80
2022/02/13 06:56:03;;;;;;;;;;;3.50;99.90;;;;;;5172193;27;44300;-80
2022/02/13 06:58:30;;;;;;;;;;;3.50;99.90;;;;;;5172858;27;43831;-80
2022/02/13 07:00:57;;;;;;;;;;;3.50;99.90;;;;;;5171593;27;42834;-80
2022/02/13 07:03:24;;;;;;;;;;;3.50;99.90;;;;;;5173029;27;44189;-80
2022/02/13 07:05:54;;;;;;;;;;;3.50;99.90;;;;;;5172877;27;44276;-80
2022/02/13 07:08:24;;;;;;;;;;;3.50;99.90;;;;;;5172787;27;43891;-80
2022/02/13 07:10:54;;;;;;;;;;;3.50;99.90;;;;;;5189409;27;46017;-80
2022/02/13 07:13:21;;;;;;;;;;;3.50;99.90;;;;;;5172761;27;43912;-80
2022/02/13 07:15:56;;;;;;;;;;;3.50;99.90;;;;;;5171404;27;44315;-81
2022/02/13 07:18:26;;;;;;;;;;;3.50;99.90;;;;;;5172855;27;43526;-80
2022/02/13 07:20:53;;;;;;;;;;;3.50;99.90;;;;;;5172940;27;43301;-80
2022/02/13 07:23:23;;;;;;;;;;;3.40;99.90;;;;;;5172838;27;44223;-81
2022/02/13 07:25:50;;;;;;;;;;;3.50;99.90;;;;;;5171505;27;43542;-81
2022/02/13 07:31:08;;;;;;;;;;;3.50;99.90;;;;;;5172895;27;42327;-80
2022/02/13 07:33:35;;;;;;;;;;;3.50;99.90;;;;;;5172374;27;19988;-80
2022/02/13 07:36:04;;;;;;;;;;;3.50;99.90;;;;;;5172664;27;44484;-80
2022/02/13 07:38:31;;;;;;;;;;;3.50;99.90;;;;;;5189084;27;44111;-81
2022/02/13 07:41:01;;;;;;;;;;;3.50;99.90;;;;;;5171326;27;43465;-80
2022/02/13 07:43:31;;;;;;;;;;;3.50;99.90;;;;;;5171356;27;44541;-80
2022/02/13 07:46:01;;;;;;;;;;;3.50;99.90;;;;;;5172687;27;44314;-81
2022/02/13 07:48:28;;;;;;;;;;;3.50;99.90;;;;;;5188817;27;44258;-80
2022/02/13 07:50:57;;;;;;;;;;;3.50;99.90;;;;;;5172002;27;43911;-81
2022/02/13 07:53:30;;;;;;;;;;;3.50;99.90;;;;;;5172582;27;43375;-80
2022/02/13 07:55:59;;;;;;;;;;;3.50;99.90;;;;;;5172752;27;42907;-80
2022/02/13 07:58:32;;;;;;;;;;;3.40;99.90;;;;;;5171389;27;42741;-81
2022/02/13 08:01:09;;;;;;;;;;;3.50;99.90;;;;;;5171398;27;42624;-80
2022/02/13 08:03:38;;;;;;;;;;;3.40;99.90;;;;;;5189832;27;20030;-80
2022/02/13 08:06:09;;;;;;;;;;;3.40;99.90;;;;;;5189813;27;44029;-80
2022/02/13 08:08:39;;;;;;;;;;;3.50;99.90;;;;;;5190137;27;42802;-80
2022/02/13 08:11:09;;;;;;;;;;;3.40;99.90;;;;;;5190782;27;43365;-81
2022/02/13 08:13:36;;;;;;;;;;;3.50;99.90;;;;;;5174770;27;43294;-80
2022/02/13 08:16:06;;;;;;;;;;;3.50;99.90;;;;;;5174501;27;45794;-80
2022/02/13 08:18:39;;;;;;;;;;;3.50;99.90;;;;;;5173937;27;43506;-80
2022/02/13 08:21:11;;;;;;;;;;;3.50;99.90;;;;;;5173988;27;43077;-80
2022/02/13 08:23:40;;;;;;;;;;;3.50;99.90;;;;;;5190160;27;42599;-80
2022/02/13 08:26:09;;;;;;;;;;;3.50;99.90;;;;;;5172780;27;44013;-80
2022/02/13 08:28:39;;;;;;;;;;;3.50;99.90;;;;;;5173777;27;43327;-80
2022/02/13 08:31:06;;;;;;;;;;;3.50;99.90;;;;;;5174281;27;43589;-80
2022/02/13 08:33:33;;;;;;;;;;;3.50;99.90;;;;;;5174304;27;43924;-80
2022/02/13 08:36:00;;;;;;;;;;;3.50;99.90;;;;;;5173975;27;43258;-80
2022/02/13 08:38:27;;;;;;;;;;;3.50;99.90;;;;;;5173124;27;45766;-80
2022/02/13 08:41:00;;;;;;;;;;;3.50;99.90;;;;;;5174420;27;43538;-80
2022/02/13 08:43:30;;;;;;;;;;;3.50;99.90;;;;;;5174129;27;43367;-80
2022/02/13 08:46:01;;;;;;;;;;;3.50;99.90;;;;;;5189847;27;43824;-80
2022/02/13 08:48:33;;;;;;;;;;;3.50;99.90;;;;;;5173138;27;44155;-80
2022/02/13 08:51:00;;;;;;;;;;;3.50;99.90;;;;;;5173690;27;44060;-80
2022/02/13 08:53:33;;;;;;;;;;;3.60;99.90;;;;;;5172436;27;43525;-80
2022/02/13 08:56:00;;;;;;;;;;;3.60;99.90;;;;;;5174122;27;44734;-80
2022/02/13 08:58:27;;;;;;;;;;;3.60;99.90;;;;;;5173148;27;43516;-80
2022/02/13 09:00:56;;;;;;;;;;;3.60;99.90;;;;;;5190555;27;44192;-80
2022/02/13 09:03:23;;;;;;;;;;;3.60;99.90;;;;;;5173638;27;43896;-80
2022/02/13 09:05:50;;;;;;;;;;;3.60;99.90;;;;;;5172306;27;42951;-80
2022/02/13 09:08:17;;;;;;;;;;;3.60;99.90;;;;;;5173725;27;43359;-80
2022/02/13 09:10:44;;;;;;;;;;;3.60;99.90;;;;;;5173725;27;43546;-80
2022/02/13 09:13:12;;;;;;;;;;;3.60;99.90;;;;;;5172721;27;45462;-80
2022/02/13 09:15:39;;;;;;;;;;;3.60;99.90;;;;;;5172371;27;43869;-80
2022/02/13 09:18:09;;;;;;;;;;;3.60;99.90;;;;;;5172328;27;43234;-80
2022/02/13 09:20:38;;;;;;;;;;;3.60;99.90;;;;;;5173487;27;43873;-80
2022/02/13 09:23:05;;;;;;;;;;;3.70;99.90;;;;;;5173694;27;42567;-80
2022/02/13 09:25:32;;;;;;;;;;;3.70;99.90;;;;;;5174173;27;44865;-80
2022/02/13 09:27:59;;;;;;;;;;;3.70;99.90;;;;;;5172261;27;44523;-80
2022/02/13 09:30:26;;;;;;;;;;;3.70;99.90;;;;;;5172239;27;42642;-80
2022/02/13 09:32:53;;;;;;;;;;;3.70;99.90;;;;;;5189411;27;44262;-80
2022/02/13 09:35:20;;;;;;;;;;;3.70;99.90;;;;;;5189320;27;44564;-80
2022/02/13 09:37:48;;;;;;;;;;;3.80;99.90;;;;;;5173367;27;43393;-80
2022/02/13 09:40:15;;;;;;;;;;;3.80;99.90;;;;;;5173934;27;44536;-81
2022/02/13 09:42:44;;;;;;;;;;;3.80;99.90;;;;;;5174042;27;43558;-81
2022/02/13 09:45:11;;;;;;;;;;;3.80;99.90;;;;;;5172007;27;43119;-80
2022/02/13 09:47:39;;;;;;;;;;;3.80;99.90;;;;;;5173405;27;43074;-80
2022/02/13 09:50:06;;;;;;;;;;;3.90;99.90;;;;;;5172234;27;44208;-80
2022/02/13 09:52:34;;;;;;;;;;;3.90;99.90;;;;;;5172195;27;44119;-80
2022/02/13 09:55:02;;;;;;;;;;;3.90;99.90;;;;;;5173473;27;44291;-80
2022/02/13 10:00:15;;;;;;;;;;;4.00;99.90;;;;;;5173696;27;44190;-80
2022/02/13 10:02:43;;;;;;;;;;;4.00;99.90;;;;;;5171612;27;43733;-81
2022/02/13 10:05:11;;;;;;;;;;;4.00;99.90;;;;;;5173202;27;42608;-81
2022/02/13 10:07:39;;;;;;;;;;;4.10;99.90;;;;;;5173154;27;43511;-80
2022/02/13 10:10:07;;;;;;;;;;;4.10;99.90;;;;;;5173512;27;43220;-80
2022/02/13 10:12:40;;;;;;;;;;;4.10;99.90;;;;;;5173560;27;43862;-80
2022/02/13 10:15:22;;;;;;;;;;;4.20;99.90;;;;;;5172119;27;43371;-81
2022/02/13 10:17:56;;;;;;;;;;;4.20;99.90;;;;;;5172459;27;44165;-80
2022/02/13 10:20:27;;;;;;;;;;;4.20;99.90;;;;;;5172595;27;44859;-80
2022/02/13 10:22:55;;;;;;;;;;;4.30;99.90;;;;;;5173260;27;43895;-81
2022/02/13 10:25:22;;;;;;;;;;;4.30;99.90;;;;;;5173133;27;44104;-81
2022/02/13 10:27:50;;;;;;;;;;;4.30;99.90;;;;;;5172169;27;43526;-80
2022/02/13 10:30:33;;;;;;;;;;;4.40;99.90;;;;;;5172036;27;43014;-81
2022/02/13 10:33:20;;;;;;;;;;;4.40;99.90;;;;;;5173790;27;43557;-81
2022/02/13 10:36:06;;;;;;;;;;;4.50;99.90;;;;;;5172064;27;43634;-81
2022/02/13 10:38:36;;;;;;;;;;;4.50;99.90;;;;;;5172267;27;43541;-81
2022/02/13 10:41:19;;;;;;;;;;;4.50;99.90;;;;;;5173881;27;43943;-81
2022/02/13 10:43:49;;;;;;;;;;;4.60;99.90;;;;;;5173702;27;44053;-80
2022/02/13 10:46:17;;;;;;;;;;;4.60;99.90;;;;;;5173055;27;43568;-81
2022/02/13 10:48:45;;;;;;;;;;;4.60;99.90;;;;;;5172880;27;44291;-81
2022/02/13 10:51:12;;;;;;;;;;;4.70;99.90;;;;;;5189266;27;43960;-81
2022/02/13 10:53:41;;;;;;;;;;;4.70;99.90;;;;;;5173042;27;44252;-81
2022/02/13 10:56:08;;;;;;;;;;;4.70;99.90;;;;;;5189694;27;43522;-80
2022/02/13 10:58:39;;;;;;;;;;;4.80;99.90;;;;;;5172903;27;43304;-81
2022/02/13 11:01:06;;;;;;;;;;;4.80;99.90;;;;;;5173476;27;44706;-81
2022/02/13 11:03:35;;;;;;;;;;;4.80;99.90;;;;;;5171331;27;44255;-81
2022/02/13 11:06:03;;;;;;;;;;;4.90;99.90;;;;;;5172843;27;43316;-81
2022/02/13 11:08:32;;;;;;;;;;;4.90;99.90;;;;;;5189302;27;45566;-81
2022/02/13 11:11:01;;;;;;;;;;;4.90;99.90;;;;;;5189549;27;44613;-80
2022/02/13 11:13:30;;;;;;;;;;;5.00;99.90;;;;;;5173467;27;44248;-81
2022/02/13 11:15:58;;;;;;;;;;;5.00;99.90;;;;;;5188804;27;44156;-80
2022/02/13 11:18:29;;;;;;;;;;;5.00;99.90;;;;;;5172787;27;42958;-81
2022/02/13 11:20:57;;;;;;;;;;;5.10;99.90;;;;;;5172889;27;44122;-81
2022/02/13 11:23:25;;;;;;;;;;;5.10;99.90;;;;;;5172639;27;42771;-81
2022/02/13 11:25:54;;;;;;;;;;;5.20;99.90;;;;;;5172988;27;43222;-81
2022/02/13 11:28:27;;;;;;;;;;;5.20;99.90;;;;;;5173367;27;44047;-80
2022/02/13 11:30:56;;;;;;;;;;;5.30;99.90;;;;;;5173531;27;43477;-81
2022/02/13 11:33:23;;;;;;;;;;;5.30;99.90;;;;;;5171361;27;44105;-81
2022/02/13 11:35:52;;;;;;;;;;;5.30;99.90;;;;;;5173316;27;42559;-82
2022/02/13 11:38:38;;;;;;;;;;;5.40;99.90;;;;;;5172763;27;43084;-81
2022/02/13 11:41:07;;;;;;;;;;;5.40;99.90;;;;;;5173543;27;43156;-81
2022/02/13 11:43:49;;;;;;;;;;;5.50;99.90;;;;;;5174191;27;42815;-81
2022/02/13 11:46:26;;;;;;;;;;;5.50;99.90;;;;;;5172959;27;43534;-81
2022/02/13 11:49:03;;;;;;;;;;;5.50;99.90;;;;;;5172827;27;43823;-82
2022/02/13 11:51:42;;;;;;;;;;;5.60;99.90;;;;;;5174731;27;44378;-83
2022/02/13 11:54:09;;;;;;;;;;;5.60;99.90;;;;;;5173054;27;43442;-81
2022/02/13 11:56:36;;;;;;;;;;;5.70;99.90;;;;;;5174041;27;44590;-81
2022/02/13 11:59:03;;;;;;;;;;;5.70;99.90;;;;;;5174143;27;43046;-81
2022/02/13 12:01:37;;;;;;;;;;;5.70;99.90;;;;;;5174150;27;43604;-81
2022/02/13 12:04:05;;;;;;;;;;;5.80;99.90;;;;;;5172927;27;43912;-81
2022/02/13 12:06:33;;;;;;;;;;;5.80;99.90;;;;;;5174026;27;43256;-81
2022/02/13 12:09:00;;;;;;;;;;;5.80;99.90;;;;;;5173774;27;19997;-80
2022/02/13 12:11:28;;;;;;;;;;;5.80;99.90;;;;;;5172642;27;43080;-81
2022/02/13 12:13:55;;;;;;;;;;;5.90;99.90;;;;;;5172664;27;44326;-81
2022/02/13 12:16:28;;;;;;;;;;;5.90;99.90;;;;;;5172764;27;42971;-82
2022/02/13 12:18:56;;;;;;;;;;;6.00;99.90;;;;;;5173963;27;44839;-81
2022/02/13 12:21:27;;;;;;;;;;;6.00;99.90;;;;;;5173876;27;44626;-82
2022/02/13 12:24:01;;;;;;;;;;;6.00;99.90;;;;;;5172549;27;44284;-81
2022/02/13 12:26:31;;;;;;;;;;;6.10;99.90;;;;;;5190486;27;43989;-81
2022/02/13 12:29:01;;;;;;;;;;;6.20;99.90;;;;;;5173092;27;44252;-81
2022/02/13 12:31:28;;;;;;;;;;;6.20;99.90;;;;;;5172621;27;42807;-81
2022/02/13 12:33:57;;;;;;;;;;;6.20;99.90;;;;;;5173021;27;44177;-81
2022/02/13 12:36:27;;;;;;;;;;;6.30;99.90;;;;;;5172486;27;42934;-81
2022/02/13 12:38:55;;;;;;;;;;;6.30;99.90;;;;;;5189918;27;44668;-81
2022/02/13 12:41:25;;;;;;;;;;;6.30;99.90;;;;;;5173913;27;44223;-81
2022/02/13 12:43:55;;;;;;;;;;;6.40;99.90;;;;;;5189517;27;42355;-81
2022/02/13 12:46:23;;;;;;;;;;;6.40;99.90;;;;;;5172482;27;42686;-81
2022/02/13 12:48:50;;;;;;;;;;;6.50;99.90;;;;;;5172985;27;44291;-81
2022/02/13 12:51:27;;;;;;;;;;;6.50;99.90;;;;;;5172076;27;44177;-81
2022/02/13 12:53:57;;;;;;;;;;;6.60;99.90;;;;;;5173722;27;44205;-82
2022/02/13 12:56:25;;;;;;;;;;;6.60;99.90;;;;;;5172345;27;43991;-82
2022/02/13 12:58:54;;;;;;;;;;;6.70;99.90;;;;;;5172233;27;42721;-81
2022/02/13 13:01:30;;;;;;;;;;;6.70;99.90;;;;;;5173548;27;43522;-81
2022/02/13 13:03:57;;;;;;;;;;;6.80;99.90;;;;;;5173988;27;43923;-81
2022/02/13 13:06:25;;;;;;;;;;;6.80;99.90;;;;;;5172157;27;44762;-82
2022/02/13 13:08:52;;;;;;;;;;;6.90;99.90;;;;;;5172225;27;44286;-81
2022/02/13 13:11:29;;;;;;;;;;;6.90;99.90;;;;;;5172303;27;45219;-81
2022/02/13 13:14:10;;;;;;;;;;;7.00;99.90;;;;;;5189716;27;42823;-81
2022/02/13 13:16:37;;;;;;;;;;;7.00;99.90;;;;;;5174243;27;45445;-81
2022/02/13 13:19:10;;;;;;;;;;;7.10;99.90;;;;;;5172956;27;43644;-81
2022/02/13 13:21:43;;;;;;;;;;;7.20;99.90;;;;;;5189512;27;43948;-82
2022/02/13 13:24:28;;;;;;;;;;;7.20;99.90;;;;;;5172276;27;45096;-81
2022/02/13 13:26:57;;;;;;;;;;;7.30;99.90;;;;;;5174121;27;42728;-81
2022/02/13 13:29:25;;;;;;;;;;;7.30;99.90;;;;;;5189474;27;43854;-81
2022/02/13 13:32:00;;;;;;;;;;;7.40;99.90;;;;;;5189402;27;43182;-81
2022/02/13 13:34:27;;;;;;;;;;;7.50;99.90;;;;;;5172107;27;44235;-81
2022/02/13 13:36:55;;;;;;;;;;;7.50;99.90;;;;;;5173649;27;43816;-82
2022/02/13 13:39:26;;;;;;;;;;;7.60;99.90;;;;;;5173511;27;42913;-82
2022/02/13 13:41:53;;;;;;;;;;;7.60;99.90;;;;;;5174257;27;22728;-82
2022/02/13 13:44:23;;;;;;;;;;;7.60;99.90;;;;;;5172119;27;44317;-81
2022/02/13 13:46:50;;;;;;;;;;;7.70;99.90;;;;;;5173331;27;42587;-81
2022/02/13 13:49:18;;;;;;;;;;;7.70;99.90;;;;;;5172473;27;44271;-81
2022/02/13 13:51:45;;;;;;;;;;;7.80;99.90;;;;;;5189282;27;43334;-82
2022/02/13 13:54:13;;;;;;;;;;;7.80;99.90;;;;;;5189425;27;43903;-81
2022/02/13 13:56:40;;;;;;;;;;;7.90;99.90;;;;;;5173922;27;44249;-81
2022/02/13 13:59:08;;;;;;;;;;;7.90;99.90;;;;;;5173212;27;45151;-82
2022/02/13 14:01:36;;;;;;;;;;;7.90;99.90;;;;;;5172359;27;43529;-82
2022/02/13 14:04:03;;;;;;;;;;;8.00;99.90;;;;;;5172329;27;44109;-81
2022/02/13 14:06:33;;;;;;;;;;;8.00;99.90;;;;;;5188893;27;44104;-81
2022/02/13 14:09:00;;;;;;;;;;;8.10;99.90;;;;;;5173230;27;42690;-82
2022/02/13 14:11:27;;;;;;;;;;;8.10;99.90;;;;;;5173140;27;43985;-81
2022/02/13 14:13:54;;;;;;;;;;;8.10;99.90;;;;;;5171804;27;44177;-79
2022/02/13 14:16:23;;;;;;;;;;;8.10;99.90;;;;;;5171836;27;42872;-81
2022/02/13 14:18:50;;;;;;;;;;;8.20;99.90;;;;;;5171869;27;44260;-81
2022/02/13 14:21:17;;;;;;;;;;;8.20;99.90;;;;;;5189738;27;43941;-81
2022/02/13 14:23:44;;;;;;;;;;;8.20;99.90;;;;;;5172183;27;43472;-81
2022/02/13 14:26:12;;;;;;;;;;;8.30;99.90;;;;;;5172946;27;43733;-83
2022/02/13 14:28:41;;;;;;;;;;;8.30;99.90;;;;;;5189015;27;44232;-79
2022/02/13 14:31:08;;;;;;;;;;;8.30;99.90;;;;;;5171842;27;44246;-79
2022/02/13 14:33:35;;;;;;;;;;;8.30;99.90;;;;;;5172270;27;43216;-81
2022/02/13 14:36:02;;;;;;;;;;;8.40;99.90;;;;;;5172252;27;44785;-79
2022/02/13 14:38:29;;;;;;;;;;;8.40;99.90;;;;;;5171745;27;43414;-83
2022/02/13 14:40:57;;;;;;;;;;;8.40;99.90;;;;;;5171501;27;42052;-84
2022/02/13 14:43:32;;;;;;;;;;;8.40;99.90;;;;;;5189190;27;43788;-83
2022/02/13 14:45:59;;;;;;;;;;;8.40;99.90;;;;;;5172098;27;43321;-83
2022/02/13 14:48:32;;;;;;;;;;;8.40;99.90;;;;;;5173431;27;44349;-82
2022/02/13 14:51:02;;;;;;;;;;;8.40;99.90;;;;;;5173272;27;43286;-82